Sturgis, SD (57785)

12:58 PM MDT on September 01, 2014 (GMT -0600)
Elk Creek Village | Change Station
CLOSE
Current Station
Personal Weather Station
Location: Piedmont, SD
Elevation: 3576 ft
Nearby Weather Stations

Elev 3576 ft 44.24 °N, 103.40 °W | Updated 12 seconds ago

Partly Cloudy
Partly Cloudy
70.1 °F
Feels Like 77 °F
N
0.0
Wind Variable Wind from North
Gusts 3.0 mph

Today
High -- | Low -- °F
--% Chance of Precip.
Yesterday
High -- | Low -- °F
Precip. -- in
6:16 AM 7:30 PM
Waxing Crescent, 43% visible
Pressure 29.98 in
Visibility 10.0 miles
Clouds Clear
Heat Index 77 °F
Dew Point 49 °F
Humidity 47%
Rainfall 0.00 in
Snow Depth Not available.
UV 9 out of 12
Pollen 8.20 out of 12
Air Quality Not available.
Flu Activity Not available.
METAR KSPF 011815Z AUTO 31011G15KT 10SM CLR 18/06 A2998 RMK AO2

More Conditions Fewer Conditions

Pressure 29.98 in
Visibility 10.0 miles
Clouds Clear
Heat Index 77 °F
Dew Point 49 °F
Humidity 47%
Rainfall 0.00 in
Snow Depth Not available.
UV 9 out of 12
Pollen 8.20 out of 12
Air Quality Not available.
Flu Activity Not available.
METAR KSPF 011815Z AUTO 31011G15KT 10SM CLR 18/06 A2998 RMK AO2

More Conditions Fewer Conditions

10-Day Weather Forecast

Almanac

Astronomy

Sep. 01, 2014 Rise Set
Actual Time 6:16 AM MDT 7:30 PM MDT
Civil Twilight 5:46 AM MDT 7:59 PM MDT
Nautical Twilight 5:10 AM MDT 8:35 PM MDT
Astronomical Twilight 4:32 AM MDT 9:13 PM MDT
Moon 1:20 PM MDT 11:17 PM MDT
Length of Visible Light 14h 13m
Length of Day
13h 13m
Tomorrow will be 2m 58s shorter.
Waxing Crescent, 43% of the Moon is Illuminated
Today
Waxing Crescent
Sep 2
First Quarter
Sep 8
Full
Sep 15
Last Quarter
Sep 24
New

Today's Extremes

State Highs State Lows

Community

WunderPhotos

Upload Photos

1,749,359 photos uploaded!

Nearby

Snow Depth

Station Depth Elevation
Blind Park 0 in 6890 ft

Earthquake Activity

City Distance Mag. Time & Date
No recent earthquake activity has been reported nearby.
Minimum magnitude displayed is 2.5.

Coastal Water Temperatures

Place Temperature
No Stations Reporting

Nearby Weather Stations